createdAt,value
2019-05-15T00:00:11.587Z,1006.84
2019-05-15T00:01:11.589Z,1006.82
2019-05-15T00:02:11.577Z,1006.81
2019-05-15T00:03:11.576Z,1006.79
2019-05-15T00:04:11.578Z,1006.79
2019-05-15T00:05:11.575Z,1006.85
2019-05-15T00:06:11.586Z,1006.92
2019-05-15T00:07:11.577Z,1006.90
2019-05-15T00:08:11.592Z,1006.92
2019-05-15T00:09:11.581Z,1006.93
2019-05-15T00:10:11.574Z,1006.94
2019-05-15T00:11:11.577Z,1006.94
2019-05-15T00:12:11.567Z,1007.01
2019-05-15T00:13:11.569Z,1006.96
2019-05-15T00:14:11.578Z,1006.94
2019-05-15T00:15:11.577Z,1006.92
2019-05-15T00:16:11.582Z,1006.90
2019-05-15T00:17:11.568Z,1006.83
2019-05-15T00:18:11.567Z,1006.80
2019-05-15T00:19:11.568Z,1006.83
2019-05-15T00:20:11.565Z,1006.84
2019-05-15T00:21:11.580Z,1006.83
2019-05-15T00:22:11.570Z,1006.85
2019-05-15T00:23:11.571Z,1006.82
2019-05-15T00:24:13.198Z,1006.82
2019-05-15T00:25:11.565Z,1006.83
2019-05-15T00:26:11.572Z,1006.78
2019-05-15T00:27:11.565Z,1006.85
2019-05-15T00:28:11.560Z,1006.83
2019-05-15T00:29:16.068Z,1006.83
2019-05-15T00:30:11.561Z,1006.83
2019-05-15T00:31:11.568Z,1006.88
2019-05-15T00:32:11.561Z,1006.92
2019-05-15T00:33:11.558Z,1006.88
2019-05-15T00:34:12.767Z,1006.88
2019-05-15T00:35:11.563Z,1006.85
2019-05-15T00:36:11.570Z,1006.89
2019-05-15T00:37:11.558Z,1006.78
2019-05-15T00:38:11.554Z,1006.79
2019-05-15T00:39:11.554Z,1006.81
2019-05-15T00:40:11.556Z,1006.79
2019-05-15T00:41:11.591Z,1006.81
2019-05-15T00:42:11.555Z,1006.75
2019-05-15T00:43:11.553Z,1006.77
2019-05-15T00:44:11.555Z,1006.77
2019-05-15T00:45:11.554Z,1006.75
2019-05-15T00:46:11.552Z,1006.72
2019-05-15T00:47:11.555Z,1006.69
2019-05-15T00:48:11.554Z,1006.71
2019-05-15T00:49:11.584Z,1006.67
2019-05-15T00:50:11.550Z,1006.68
2019-05-15T00:51:14.630Z,1006.72
2019-05-15T00:52:12.292Z,1006.67
2019-05-15T00:53:11.548Z,1006.62
2019-05-15T00:54:11.553Z,1006.64
2019-05-15T00:55:11.546Z,1006.59
2019-05-15T00:56:11.545Z,1006.59
2019-05-15T00:57:11.551Z,1006.57
2019-05-15T00:58:11.548Z,1006.54
2019-05-15T00:59:23.162Z,1006.53
2019-05-15T01:00:11.544Z,1006.50
2019-05-15T01:01:11.543Z,1006.52
2019-05-15T01:02:11.549Z,1006.57
2019-05-15T01:03:11.542Z,1006.60
2019-05-15T01:04:11.545Z,1006.60
2019-05-15T01:05:11.545Z,1006.58
2019-05-15T01:06:11.538Z,1006.56
2019-05-15T01:07:11.549Z,1006.54
2019-05-15T01:08:11.541Z,1006.52
2019-05-15T01:09:11.537Z,1006.48
2019-05-15T01:10:11.540Z,1006.50
2019-05-15T01:11:11.536Z,1006.47
2019-05-15T01:12:11.546Z,1006.42
2019-05-15T01:13:11.537Z,1006.39
2019-05-15T01:14:12.280Z,1006.37
2019-05-15T01:15:11.540Z,1006.41
2019-05-15T01:16:11.533Z,1006.41
2019-05-15T01:17:11.535Z,1006.44
2019-05-15T01:18:11.536Z,1006.44
2019-05-15T01:19:11.537Z,1006.40
2019-05-15T01:20:11.535Z,1006.39
2019-05-15T01:21:11.532Z,1006.45
2019-05-15T01:22:11.539Z,1006.45
2019-05-15T01:23:11.530Z,1006.45
2019-05-15T01:24:11.536Z,1006.52
2019-05-15T01:25:11.528Z,1006.48
2019-05-15T01:26:11.528Z,1006.50
2019-05-15T01:27:11.569Z,1006.54
2019-05-15T01:28:11.528Z,1006.52
2019-05-15T01:29:11.526Z,1006.58
2019-05-15T01:30:11.526Z,1006.57
2019-05-15T01:31:11.526Z,1006.57
2019-05-15T01:32:11.540Z,1006.51
2019-05-15T01:33:11.569Z,1006.48
2019-05-15T01:34:11.526Z,1006.41
2019-05-15T01:35:11.540Z,1006.41
2019-05-15T01:36:11.523Z,1006.40
2019-05-15T01:37:11.525Z,1006.42
2019-05-15T01:38:11.527Z,1006.36
2019-05-15T01:39:11.520Z,1006.37
2019-05-15T01:40:11.520Z,1006.38
2019-05-15T01:41:11.520Z,1006.41
2019-05-15T01:42:11.517Z,1006.39
2019-05-15T01:43:11.521Z,1006.43
2019-05-15T01:44:11.518Z,1006.43
2019-05-15T01:45:11.516Z,1006.43
2019-05-15T01:46:11.515Z,1006.46
2019-05-15T01:47:11.521Z,1006.45
2019-05-15T01:48:11.523Z,1006.44
2019-05-15T01:49:11.513Z,1006.43
2019-05-15T01:50:11.514Z,1006.42
2019-05-15T01:51:11.512Z,1006.45
2019-05-15T01:52:11.517Z,1006.40
2019-05-15T01:53:11.522Z,1006.41
2019-05-15T01:54:11.516Z,1006.41
2019-05-15T01:55:11.518Z,1006.41
2019-05-15T01:56:11.510Z,1006.35
2019-05-15T01:57:11.511Z,1006.42
2019-05-15T01:58:11.522Z,1006.42
2019-05-15T01:59:11.508Z,1006.41
2019-05-15T02:00:11.513Z,1006.40
2019-05-15T02:01:11.508Z,1006.36
2019-05-15T02:02:11.508Z,1006.37
2019-05-15T02:03:11.517Z,1006.32
2019-05-15T02:04:11.504Z,1006.34
2019-05-15T02:05:11.506Z,1006.35
2019-05-15T02:06:11.506Z,1006.33
2019-05-15T02:07:11.507Z,1006.35
2019-05-15T02:08:11.513Z,1006.36
2019-05-15T02:09:11.504Z,1006.34
2019-05-15T02:10:11.504Z,1006.35
2019-05-15T02:11:11.500Z,1006.32
2019-05-15T02:12:11.504Z,1006.29
2019-05-15T02:13:11.505Z,1006.27
2019-05-15T02:14:11.510Z,1006.26
2019-05-15T02:15:11.502Z,1006.21
2019-05-15T02:16:11.499Z,1006.23
2019-05-15T02:17:11.499Z,1006.20
2019-05-15T02:18:11.506Z,1006.15
2019-05-15T02:19:11.500Z,1006.14
2019-05-15T02:20:11.501Z,1006.17
2019-05-15T02:21:11.500Z,1006.21
2019-05-15T02:22:11.495Z,1006.19
2019-05-15T02:23:12.034Z,1006.21
2019-05-15T02:24:11.497Z,1006.25
2019-05-15T02:25:11.492Z,1006.23
2019-05-15T02:26:11.492Z,1006.26
2019-05-15T02:27:11.494Z,1006.28
2019-05-15T02:28:11.493Z,1006.25
2019-05-15T02:29:16.105Z,1006.21
2019-05-15T02:30:22.714Z,1006.25
2019-05-15T02:31:11.491Z,1006.24
2019-05-15T02:32:11.489Z,1006.24
2019-05-15T02:33:11.489Z,1006.19
2019-05-15T02:34:11.494Z,1006.25
2019-05-15T02:35:11.489Z,1006.21
2019-05-15T02:36:11.482Z,1006.19
2019-05-15T02:37:11.487Z,1006.15
2019-05-15T02:38:15.204Z,1006.12
2019-05-15T02:39:11.503Z,1006.14
2019-05-15T02:40:11.499Z,1006.11
2019-05-15T02:41:11.487Z,1006.10
2019-05-15T02:42:11.487Z,1006.01
2019-05-15T02:43:11.485Z,1006.03
2019-05-15T02:44:11.497Z,1006.01
2019-05-15T02:45:11.483Z,1006.05
2019-05-15T02:46:11.488Z,1006.00
2019-05-15T02:47:11.483Z,1006.03
2019-05-15T02:48:11.481Z,1006.03
2019-05-15T02:49:11.495Z,1006.05
2019-05-15T02:50:11.542Z,1006.02
2019-05-15T02:51:11.484Z,1006.00
2019-05-15T02:52:11.481Z,1006.00
2019-05-15T02:53:11.481Z,1005.96
2019-05-15T02:54:11.487Z,1005.99
2019-05-15T02:55:11.479Z,1005.96
2019-05-15T02:56:11.479Z,1005.98
2019-05-15T02:57:11.477Z,1006.00
2019-05-15T02:58:11.493Z,1005.99
2019-05-15T02:59:11.520Z,1005.99
2019-05-15T03:00:11.492Z,1005.99
2019-05-15T03:01:11.488Z,1006.05
2019-05-15T03:02:11.473Z,1006.01
2019-05-15T03:03:11.471Z,1005.96
2019-05-15T03:04:11.486Z,1005.99
2019-05-15T03:05:11.468Z,1005.98
2019-05-15T03:06:11.473Z,1005.99
2019-05-15T03:07:11.470Z,1006.08
2019-05-15T03:08:11.470Z,1006.05
2019-05-15T03:09:11.476Z,1006.07
2019-05-15T03:10:11.467Z,1006.11
2019-05-15T03:11:11.469Z,1006.11
2019-05-15T03:12:11.468Z,1006.15
2019-05-15T03:13:11.489Z,1006.14
2019-05-15T03:14:11.468Z,1006.18
2019-05-15T03:15:11.474Z,1006.10
2019-05-15T03:16:11.464Z,1006.16
2019-05-15T03:17:11.464Z,1006.14
2019-05-15T03:18:11.461Z,1006.15
2019-05-15T03:19:11.483Z,1006.13
2019-05-15T03:20:11.534Z,1006.12
2019-05-15T03:21:11.462Z,1006.10
2019-05-15T03:22:11.462Z,1006.13
2019-05-15T03:23:11.459Z,1006.12
2019-05-15T03:24:11.459Z,1006.06
2019-05-15T03:25:11.476Z,1006.03
2019-05-15T03:26:11.463Z,1006.04
2019-05-15T03:27:11.462Z,1005.97
2019-05-15T03:28:11.456Z,1005.99
2019-05-15T03:29:11.458Z,1006.04
2019-05-15T03:30:14.083Z,1006.02
2019-05-15T03:31:32.667Z,1005.96
2019-05-15T03:32:24.974Z,1005.90
2019-05-15T03:33:18.578Z,1005.86
2019-05-15T03:34:20.611Z,1005.89
2019-05-15T03:35:15.079Z,1005.85
2019-05-15T03:36:13.489Z,1005.85
2019-05-15T03:37:12.760Z,1005.77
2019-05-15T03:38:11.453Z,1005.79
2019-05-15T03:39:11.450Z,1005.73
2019-05-15T03:40:11.466Z,1005.80
2019-05-15T03:41:11.454Z,1005.86
2019-05-15T03:42:11.450Z,1005.84
2019-05-15T03:43:11.447Z,1005.89
2019-05-15T03:44:11.450Z,1005.94
2019-05-15T03:45:11.460Z,1006.02
2019-05-15T03:46:11.450Z,1006.04
2019-05-15T03:47:11.446Z,1006.09
2019-05-15T03:48:11.449Z,1006.12
2019-05-15T03:49:11.457Z,1006.22
2019-05-15T03:50:11.448Z,1006.22
2019-05-15T03:51:11.446Z,1006.24
2019-05-15T03:52:11.482Z,1006.26
2019-05-15T03:53:11.443Z,1006.22
2019-05-15T03:54:11.448Z,1006.27
2019-05-15T03:55:11.452Z,1006.37
2019-05-15T03:56:11.446Z,1006.38
2019-05-15T03:57:11.454Z,1006.41
2019-05-15T03:58:11.441Z,1006.41
2019-05-15T03:59:11.441Z,1006.43
2019-05-15T04:00:11.447Z,1006.41
2019-05-15T04:01:28.366Z,1006.41
2019-05-15T04:02:11.440Z,1006.47
2019-05-15T04:03:11.445Z,1006.48
2019-05-15T04:04:11.436Z,1006.39
2019-05-15T04:05:12.290Z,1006.36
2019-05-15T04:06:11.436Z,1006.33
2019-05-15T04:07:11.441Z,1006.34
2019-05-15T04:08:11.548Z,1006.32
2019-05-15T04:09:11.434Z,1006.36
2019-05-15T04:10:11.715Z,1006.29
2019-05-15T04:11:11.434Z,1006.30
2019-05-15T04:12:11.439Z,1006.27
2019-05-15T04:13:11.440Z,1006.38
2019-05-15T04:14:11.429Z,1006.35
2019-05-15T04:15:11.429Z,1006.29
2019-05-15T04:16:11.431Z,1006.34
2019-05-15T04:17:11.431Z,1006.32
2019-05-15T04:18:11.437Z,1006.25
2019-05-15T04:19:11.433Z,1006.22
2019-05-15T04:20:11.446Z,1006.15
2019-05-15T04:21:11.439Z,1006.09
2019-05-15T04:22:11.427Z,1006.08
2019-05-15T04:23:11.444Z,1006.05
2019-05-15T04:24:11.423Z,1006.05
2019-05-15T04:25:11.423Z,1006.06
2019-05-15T04:26:11.428Z,1006.10
2019-05-15T04:27:11.490Z,1006.09
2019-05-15T04:28:11.427Z,1006.10
2019-05-15T04:29:11.423Z,1006.13
2019-05-15T04:30:11.422Z,1006.09
2019-05-15T04:31:11.432Z,1006.14
2019-05-15T04:32:11.422Z,1006.19
2019-05-15T04:33:11.444Z,1006.17
2019-05-15T04:34:11.421Z,1006.25
2019-05-15T04:35:11.420Z,1006.20
2019-05-15T04:36:11.438Z,1006.20
2019-05-15T04:37:11.414Z,1006.24
2019-05-15T04:38:11.415Z,1006.18
2019-05-15T04:39:11.422Z,1006.22
2019-05-15T04:40:11.416Z,1006.19
2019-05-15T04:41:11.423Z,1006.26
2019-05-15T04:42:11.738Z,1006.26
2019-05-15T04:43:11.422Z,1006.29
2019-05-15T04:44:11.411Z,1006.26
2019-05-15T04:45:11.412Z,1006.31
2019-05-15T04:46:11.447Z,1006.27
2019-05-15T04:47:11.418Z,1006.20
2019-05-15T04:48:11.410Z,1006.24
2019-05-15T04:49:11.422Z,1006.20
2019-05-15T04:50:11.413Z,1006.20
2019-05-15T04:51:11.427Z,1006.23
2019-05-15T04:52:11.413Z,1006.21
2019-05-15T04:53:11.405Z,1006.18
2019-05-15T04:54:11.516Z,1006.17
2019-05-15T04:55:11.407Z,1006.15
2019-05-15T04:56:11.408Z,1006.14
2019-05-15T04:57:11.409Z,1006.15
2019-05-15T04:58:11.408Z,1006.15
2019-05-15T04:59:11.436Z,1006.12
2019-05-15T05:00:11.416Z,1006.11
2019-05-15T05:01:11.412Z,1006.09
2019-05-15T05:02:17.265Z,1006.10
2019-05-15T05:03:11.404Z,1006.07
2019-05-15T05:04:11.398Z,1006.04
2019-05-15T05:05:11.398Z,1006.07
2019-05-15T05:06:11.404Z,1006.02
2019-05-15T05:07:11.413Z,1006.06
2019-05-15T05:08:11.398Z,1006.06
2019-05-15T05:09:11.397Z,1006.09
2019-05-15T05:10:11.400Z,1006.03
2019-05-15T05:11:11.398Z,1006.03
2019-05-15T05:12:11.405Z,1006.00
2019-05-15T05:13:11.398Z,1005.97
2019-05-15T05:14:11.425Z,1005.94
2019-05-15T05:15:11.395Z,1005.90
2019-05-15T05:16:11.395Z,1005.83
2019-05-15T05:17:11.405Z,1005.79
2019-05-15T05:18:11.502Z,1005.74
2019-05-15T05:19:11.403Z,1005.70
2019-05-15T05:20:11.391Z,1005.67
2019-05-15T05:21:11.389Z,1005.72
2019-05-15T05:22:11.393Z,1005.69
2019-05-15T05:23:11.390Z,1005.65
2019-05-15T05:24:11.389Z,1005.56
2019-05-15T05:25:11.388Z,1005.55
2019-05-15T05:26:11.390Z,1005.49
2019-05-15T05:27:11.398Z,1005.46
2019-05-15T05:28:11.388Z,1005.39
2019-05-15T05:29:11.412Z,1005.34
2019-05-15T05:30:11.384Z,1005.31
2019-05-15T05:31:14.119Z,1005.22
2019-05-15T05:32:11.396Z,1005.19
2019-05-15T05:33:11.391Z,1005.10
2019-05-15T05:34:11.389Z,1005.09
2019-05-15T05:35:11.384Z,1005.06
2019-05-15T05:36:11.386Z,1005.02
2019-05-15T05:37:11.388Z,1004.97
2019-05-15T05:38:11.381Z,1004.88
2019-05-15T05:39:13.615Z,1004.84
2019-05-15T05:40:11.380Z,1004.82
2019-05-15T05:41:11.382Z,1004.84
2019-05-15T05:42:11.395Z,1004.83
2019-05-15T05:43:11.380Z,1004.81
2019-05-15T05:44:11.375Z,1004.84
2019-05-15T05:45:11.376Z,1004.81
2019-05-15T05:46:11.386Z,1004.81
2019-05-15T05:47:11.375Z,1004.74
2019-05-15T05:48:11.379Z,1004.65
2019-05-15T05:49:11.376Z,1004.65
2019-05-15T05:50:11.374Z,1004.67
2019-05-15T05:51:11.379Z,1004.63
2019-05-15T05:52:11.371Z,1004.44
2019-05-15T05:53:11.394Z,1004.43
2019-05-15T05:54:11.378Z,1004.41
2019-05-15T05:55:11.371Z,1004.40
2019-05-15T05:56:11.371Z,1004.49
2019-05-15T05:57:11.366Z,1004.45
2019-05-15T05:58:11.379Z,1004.33
2019-05-15T05:59:11.374Z,1004.27
2019-05-15T06:00:11.381Z,1004.40
2019-05-15T06:01:11.367Z,1004.32
2019-05-15T06:02:11.366Z,1004.17
2019-05-15T06:03:11.373Z,1004.19
2019-05-15T06:04:11.420Z,1004.19
2019-05-15T06:05:11.366Z,1004.22
2019-05-15T06:06:11.371Z,1004.28
2019-05-15T06:07:14.222Z,1004.41
2019-05-15T06:08:11.374Z,1004.37
2019-05-15T06:09:11.367Z,1004.46
2019-05-15T06:10:11.365Z,1004.38
2019-05-15T06:11:11.359Z,1004.29
2019-05-15T06:12:11.364Z,1004.33
2019-05-15T06:13:11.370Z,1004.35
2019-05-15T06:14:11.359Z,1004.42
2019-05-15T06:15:11.361Z,1004.42
2019-05-15T06:16:11.358Z,1004.52
2019-05-15T06:17:11.358Z,1004.57
2019-05-15T06:18:11.369Z,1004.64
2019-05-15T06:19:11.357Z,1004.61
2019-05-15T06:20:11.358Z,1004.58
2019-05-15T06:21:11.355Z,1004.52
2019-05-15T06:22:11.354Z,1004.46
2019-05-15T06:23:11.362Z,1004.59
2019-05-15T06:24:13.113Z,1004.63
2019-05-15T06:25:11.893Z,1004.55
2019-05-15T06:26:11.352Z,1004.62
2019-05-15T06:27:11.358Z,1004.49
2019-05-15T06:28:11.359Z,1004.25
2019-05-15T06:29:11.358Z,1003.97
2019-05-15T06:30:19.415Z,1003.91
2019-05-15T06:31:11.352Z,1003.86
2019-05-15T06:32:11.348Z,1003.80
2019-05-15T06:33:13.494Z,1003.56
2019-05-15T06:34:11.354Z,1003.47
2019-05-15T06:35:11.347Z,1003.37
2019-05-15T06:36:11.347Z,1003.43
2019-05-15T06:37:11.345Z,1003.47
2019-05-15T06:38:11.349Z,1003.53
2019-05-15T06:39:11.349Z,1003.63
2019-05-15T06:40:11.345Z,1003.79
2019-05-15T06:41:11.351Z,1003.84
2019-05-15T06:42:11.352Z,1003.83
2019-05-15T06:43:11.345Z,1003.79
2019-05-15T06:44:11.389Z,1003.84
2019-05-15T06:45:11.352Z,1003.82
2019-05-15T06:46:11.344Z,1003.70
2019-05-15T06:47:11.344Z,1003.71
2019-05-15T06:48:11.352Z,1003.88
2019-05-15T06:49:11.341Z,1003.89
2019-05-15T06:50:11.336Z,1003.92
2019-05-15T06:51:11.343Z,1003.82
2019-05-15T06:52:11.340Z,1003.58
2019-05-15T06:53:11.337Z,1003.27
2019-05-15T06:54:11.345Z,1003.19
2019-05-15T06:55:11.337Z,1003.21
2019-05-15T06:56:11.335Z,1003.31
2019-05-15T06:57:11.336Z,1003.35
2019-05-15T06:58:11.337Z,1003.44
2019-05-15T06:59:11.337Z,1003.33
2019-05-15T07:00:11.334Z,1003.35
2019-05-15T07:01:11.331Z,1003.27
2019-05-15T07:02:11.333Z,1003.30
2019-05-15T07:03:21.403Z,1003.25
2019-05-15T07:04:11.336Z,1003.27
2019-05-15T07:05:11.328Z,1003.33
2019-05-15T07:06:11.329Z,1003.39
2019-05-15T07:07:11.366Z,1003.43
2019-05-15T07:08:11.327Z,1003.56
2019-05-15T07:09:11.468Z,1003.63
2019-05-15T07:10:11.338Z,1003.72
2019-05-15T07:11:11.328Z,1003.49
2019-05-15T07:12:11.326Z,1003.11
2019-05-15T07:13:11.325Z,1002.69
2019-05-15T07:14:11.376Z,1002.59
2019-05-15T07:15:11.324Z,1002.60
2019-05-15T07:16:11.323Z,1002.32
2019-05-15T07:17:11.327Z,1002.32
2019-05-15T07:18:11.323Z,1002.47
2019-05-15T07:19:11.331Z,1002.79
2019-05-15T07:20:11.370Z,1002.85
2019-05-15T07:21:11.323Z,1002.78
2019-05-15T07:22:11.320Z,1002.57
2019-05-15T07:23:11.321Z,1002.57
2019-05-15T07:24:11.319Z,1002.72
2019-05-15T07:25:11.323Z,1002.94
2019-05-15T07:26:11.321Z,1003.16
2019-05-15T07:27:11.321Z,1003.02
2019-05-15T07:28:11.319Z,1002.80
2019-05-15T07:29:11.315Z,1002.43
2019-05-15T07:30:12.349Z,1002.28
2019-05-15T07:31:11.799Z,1002.16
2019-05-15T07:32:11.319Z,1001.69
2019-05-15T07:33:11.314Z,1001.31
2019-05-15T07:34:12.012Z,1001.30
2019-05-15T07:35:11.322Z,1000.97
2019-05-15T07:36:11.314Z,1000.92
2019-05-15T07:37:11.310Z,1000.99
2019-05-15T07:38:11.320Z,1001.20
2019-05-15T07:39:11.312Z,1001.40
2019-05-15T07:40:11.309Z,1001.72
2019-05-15T07:41:11.330Z,1001.84
2019-05-15T07:42:11.313Z,1001.28
2019-05-15T07:43:11.307Z,1000.75
2019-05-15T07:44:11.305Z,1000.12
2019-05-15T07:45:11.312Z,999.92
2019-05-15T07:46:11.306Z,999.97
2019-05-15T07:47:11.305Z,999.71
2019-05-15T07:48:11.312Z,999.71
2019-05-15T07:49:11.304Z,999.82
2019-05-15T07:50:11.316Z,999.77
2019-05-15T07:51:11.920Z,999.52
2019-05-15T07:52:11.305Z,999.96
2019-05-15T07:53:11.300Z,999.76
2019-05-15T07:54:11.301Z,999.80
2019-05-15T07:55:11.326Z,999.77
2019-05-15T07:56:12.348Z,999.67
2019-05-15T07:57:11.306Z,999.80
2019-05-15T07:58:11.299Z,999.87
2019-05-15T07:59:11.304Z,999.87
2019-05-15T08:00:11.305Z,999.94
2019-05-15T08:01:11.296Z,1000.30
2019-05-15T08:02:11.295Z,1000.22
2019-05-15T08:03:11.298Z,1000.22
2019-05-15T08:04:24.727Z,999.70
2019-05-15T08:05:11.301Z,999.69
2019-05-15T08:06:11.299Z,999.52
2019-05-15T08:07:11.301Z,999.56
2019-05-15T08:08:11.294Z,999.82
2019-05-15T08:09:11.294Z,999.69
2019-05-15T08:10:11.322Z,1000.05
2019-05-15T08:11:20.274Z,1000.01
2019-05-15T08:12:11.306Z,999.80
2019-05-15T08:13:11.288Z,999.66
2019-05-15T08:14:11.297Z,999.55
2019-05-15T08:15:11.291Z,999.95
2019-05-15T08:16:11.288Z,1000.36
2019-05-15T08:17:11.287Z,1000.12
2019-05-15T08:18:13.012Z,1000.19
2019-05-15T08:19:11.288Z,1000.23
2019-05-15T08:20:11.288Z,1000.66
2019-05-15T08:21:11.290Z,1000.85
2019-05-15T08:22:11.291Z,1001.04
2019-05-15T08:23:11.283Z,1001.45
2019-05-15T08:24:11.283Z,1001.58
2019-05-15T08:25:16.172Z,1001.78
2019-05-15T08:26:11.296Z,1002.06
2019-05-15T08:27:11.276Z,1002.57
2019-05-15T08:28:11.281Z,1002.92
2019-05-15T08:29:11.280Z,1002.93
2019-05-15T08:30:11.280Z,1002.80
2019-05-15T08:31:11.301Z,1002.80
2019-05-15T08:32:11.286Z,1003.02
2019-05-15T08:33:11.315Z,1003.23
2019-05-15T08:34:16.035Z,1002.89
2019-05-15T08:35:12.765Z,1002.83
2019-05-15T08:36:11.283Z,1002.83
2019-05-15T08:37:11.275Z,1003.02
2019-05-15T08:38:14.249Z,1003.10
2019-05-15T08:39:11.273Z,1003.28
2019-05-15T08:40:11.303Z,1003.19
2019-05-15T08:41:11.750Z,1003.12
2019-05-15T08:42:11.282Z,1002.94
2019-05-15T08:43:11.685Z,1002.92
2019-05-15T08:44:11.273Z,1002.92
2019-05-15T08:45:11.273Z,1002.74
2019-05-15T08:46:11.288Z,1002.65
2019-05-15T08:47:11.272Z,1002.56
2019-05-15T08:48:11.273Z,1002.46
2019-05-15T08:49:11.267Z,1002.68
2019-05-15T08:50:11.268Z,1002.77
2019-05-15T08:51:11.273Z,1002.74
2019-05-15T08:52:11.275Z,1002.55
2019-05-15T08:53:11.269Z,1002.38
2019-05-15T08:54:11.266Z,1002.54
2019-05-15T08:55:11.267Z,1002.60
2019-05-15T08:56:14.692Z,1002.52
2019-05-15T08:57:11.264Z,1002.62
2019-05-15T08:58:14.087Z,1002.59
2019-05-15T08:59:11.268Z,1002.87
2019-05-15T09:00:11.266Z,1002.55
2019-05-15T09:01:11.283Z,1002.34
2019-05-15T09:02:11.263Z,1002.54
2019-05-15T09:03:11.260Z,1002.91
2019-05-15T09:04:26.183Z,1002.98
2019-05-15T09:05:11.285Z,1002.98
2019-05-15T09:06:11.258Z,1002.67
2019-05-15T09:07:11.261Z,1002.70
2019-05-15T09:08:11.268Z,1002.72
2019-05-15T09:09:11.257Z,1001.97
2019-05-15T09:10:11.256Z,1001.85
2019-05-15T09:11:11.259Z,1001.74
2019-05-15T09:12:11.258Z,1001.66
2019-05-15T09:13:11.273Z,1001.46
2019-05-15T09:14:11.253Z,1001.79
2019-05-15T09:15:11.252Z,1001.58
2019-05-15T09:16:11.257Z,1001.38
2019-05-15T09:17:11.255Z,1001.10
2019-05-15T09:18:15.891Z,1000.98
2019-05-15T09:19:11.252Z,1001.05
2019-05-15T09:20:11.250Z,1000.96
2019-05-15T09:21:11.248Z,1001.14
2019-05-15T09:22:11.266Z,1001.27
2019-05-15T09:23:11.255Z,1001.25
2019-05-15T09:24:11.250Z,1000.90
2019-05-15T09:25:11.247Z,1001.07
2019-05-15T09:26:11.247Z,1001.20
2019-05-15T09:27:11.267Z,1001.10
2019-05-15T09:28:11.245Z,1001.31
2019-05-15T09:29:11.240Z,1001.20
2019-05-15T09:30:11.243Z,1001.60
2019-05-15T09:31:11.274Z,1001.77
2019-05-15T09:32:12.601Z,1001.76
2019-05-15T09:33:11.242Z,1001.72
2019-05-15T09:34:11.262Z,1001.33
2019-05-15T09:35:11.241Z,1001.33
2019-05-15T09:36:11.242Z,1001.64
2019-05-15T09:37:11.248Z,1001.84
2019-05-15T09:38:11.241Z,1001.59
2019-05-15T09:39:13.393Z,1001.21
2019-05-15T09:40:11.237Z,1001.08
2019-05-15T09:41:11.237Z,1001.24
2019-05-15T09:42:11.245Z,1001.85
2019-05-15T09:43:11.626Z,1001.94
2019-05-15T09:44:11.238Z,1001.59
2019-05-15T09:45:11.241Z,1001.64
2019-05-15T09:46:11.235Z,1001.70
2019-05-15T09:47:11.244Z,1001.71
2019-05-15T09:48:14.608Z,1001.35
2019-05-15T09:49:11.235Z,1001.31
2019-05-15T09:50:11.242Z,1001.29
2019-05-15T09:51:11.241Z,1001.53
2019-05-15T09:52:11.243Z,1001.73
2019-05-15T09:53:11.233Z,1001.39
2019-05-15T09:54:11.230Z,1001.04
2019-05-15T09:55:11.228Z,1000.55
2019-05-15T09:56:11.229Z,1000.44
2019-05-15T09:57:11.390Z,1000.83
2019-05-15T09:58:11.231Z,1000.96
2019-05-15T09:59:11.233Z,1001.01
2019-05-15T10:00:11.239Z,1001.22
2019-05-15T10:01:11.225Z,1001.55
2019-05-15T10:02:11.238Z,1001.12
2019-05-15T10:03:11.225Z,1000.66
2019-05-15T10:04:11.224Z,1000.75
2019-05-15T10:05:11.692Z,1000.24
2019-05-15T10:06:11.226Z,1000.20
2019-05-15T10:07:11.225Z,1000.15
2019-05-15T10:08:11.233Z,999.95
2019-05-15T10:09:11.221Z,999.94
2019-05-15T10:10:11.220Z,999.99
2019-05-15T10:11:11.224Z,999.85
2019-05-15T10:12:11.222Z,1000.17
2019-05-15T10:13:11.221Z,999.93
2019-05-15T10:14:11.217Z,999.91
2019-05-15T10:15:11.814Z,999.19
2019-05-15T10:16:11.217Z,999.20
2019-05-15T10:17:11.216Z,999.60
2019-05-15T10:18:11.228Z,999.51
2019-05-15T10:19:11.221Z,999.51
2019-05-15T10:20:11.213Z,999.56
2019-05-15T10:21:11.223Z,999.62
2019-05-15T10:22:11.213Z,999.51
2019-05-15T10:23:11.220Z,999.44
2019-05-15T10:24:11.211Z,999.66
2019-05-15T10:25:11.219Z,1000.38
2019-05-15T10:26:13.768Z,1000.14
2019-05-15T10:27:11.210Z,999.65
2019-05-15T10:28:11.212Z,999.47
2019-05-15T10:29:11.217Z,1000.01
2019-05-15T10:30:11.209Z,1000.30
2019-05-15T10:31:11.209Z,1000.48
2019-05-15T10:32:11.213Z,1000.75
2019-05-15T10:33:11.211Z,1001.00
2019-05-15T10:34:11.208Z,1001.12
2019-05-15T10:35:24.371Z,1000.65
2019-05-15T10:36:11.205Z,1000.05
2019-05-15T10:37:11.202Z,1000.15
2019-05-15T10:38:11.210Z,1000.24
2019-05-15T10:39:11.387Z,999.44
2019-05-15T10:40:11.202Z,999.49
2019-05-15T10:41:15.140Z,999.73
2019-05-15T10:42:11.203Z,1000.08
2019-05-15T10:43:11.219Z,999.75
2019-05-15T10:44:11.211Z,999.75
2019-05-15T10:45:11.202Z,999.84
2019-05-15T10:46:13.115Z,1000.23
2019-05-15T10:47:11.198Z,1000.21
2019-05-15T10:48:11.252Z,999.80
2019-05-15T10:49:11.211Z,1000.00
2019-05-15T10:50:11.195Z,1000.31
2019-05-15T10:51:11.198Z,1000.33
2019-05-15T10:52:11.447Z,1000.46
2019-05-15T10:53:11.413Z,999.94
2019-05-15T10:54:11.194Z,999.86
2019-05-15T10:55:11.195Z,999.75
2019-05-15T10:56:11.195Z,999.79
2019-05-15T10:57:11.194Z,999.63
2019-05-15T10:58:14.119Z,999.38
2019-05-15T10:59:11.193Z,999.14
2019-05-15T11:00:11.192Z,999.41
2019-05-15T11:01:11.564Z,999.45
2019-05-15T11:02:11.190Z,999.02
2019-05-15T11:03:11.187Z,999.43
2019-05-15T11:04:11.190Z,999.32
2019-05-15T11:05:11.207Z,999.89
2019-05-15T11:06:11.187Z,1000.10
2019-05-15T11:07:11.195Z,999.73
2019-05-15T11:08:11.187Z,999.72
2019-05-15T11:09:11.188Z,999.82
2019-05-15T11:10:11.191Z,999.98
2019-05-15T11:11:11.185Z,999.76
2019-05-15T11:12:11.187Z,999.88
2019-05-15T11:13:11.225Z,999.68
2019-05-15T11:14:11.219Z,1000.02
2019-05-15T11:15:11.530Z,999.81
2019-05-15T11:16:11.180Z,999.83
2019-05-15T11:17:11.191Z,999.56
2019-05-15T11:18:11.185Z,999.80
2019-05-15T11:19:11.192Z,999.93
2019-05-15T11:20:11.178Z,999.97
2019-05-15T11:21:11.200Z,999.81
2019-05-15T11:22:11.181Z,1000.47
2019-05-15T11:23:11.178Z,1000.79
2019-05-15T11:24:11.200Z,1000.71
2019-05-15T11:25:11.179Z,1000.07
2019-05-15T11:26:11.329Z,1000.06
2019-05-15T11:27:11.203Z,999.40
2019-05-15T11:28:11.174Z,998.76
2019-05-15T11:29:11.186Z,999.12
2019-05-15T11:30:11.175Z,998.81
2019-05-15T11:31:11.173Z,998.10
2019-05-15T11:32:11.171Z,997.89
2019-05-15T11:33:11.172Z,997.85
2019-05-15T11:34:11.175Z,998.42
2019-05-15T11:35:11.176Z,999.08
2019-05-15T11:36:11.171Z,999.05
2019-05-15T11:37:11.170Z,998.97
2019-05-15T11:38:11.201Z,998.83
2019-05-15T11:39:11.168Z,998.73
2019-05-15T11:40:11.498Z,998.83
2019-05-15T11:41:11.171Z,998.93
2019-05-15T11:42:11.168Z,998.53
2019-05-15T11:43:11.174Z,998.79
2019-05-15T11:44:11.164Z,998.47
2019-05-15T11:45:11.175Z,999.01
2019-05-15T11:46:11.165Z,999.25
2019-05-15T11:47:11.174Z,999.11
2019-05-15T11:48:11.163Z,997.96
2019-05-15T11:49:11.168Z,997.75
2019-05-15T11:50:11.166Z,998.58
2019-05-15T11:51:11.162Z,998.43
2019-05-15T11:52:11.170Z,998.43
2019-05-15T11:53:11.163Z,998.16
2019-05-15T11:54:11.163Z,997.79
2019-05-15T11:55:11.167Z,997.98
2019-05-15T11:56:11.156Z,998.56
2019-05-15T11:57:11.159Z,998.95
2019-05-15T11:58:11.172Z,998.86
2019-05-15T11:59:11.214Z,998.03
2019-05-15T12:00:17.239Z,997.76
2019-05-15T12:01:11.155Z,997.64
2019-05-15T12:02:11.155Z,997.84
2019-05-15T12:03:11.155Z,998.00
2019-05-15T12:04:25.435Z,998.34
2019-05-15T12:05:11.159Z,998.07
2019-05-15T12:06:18.513Z,997.87
2019-05-15T12:07:11.152Z,998.23
2019-05-15T12:08:12.634Z,998.32
2019-05-15T12:09:11.150Z,998.27